Terminal Aerodrome Forecast
Issued by NWS

Home | Current Version | Previous Version | Text Only | Print | Product List | Glossary On
Versions: 1 2 3 4 5 6 7 8 9 10 11 12
000
FTUS42 KTBW 311700
TAFLAL
TAF
KLAL 311738Z 3118/0118 30010KT P6SM FEW250
     FM010200 30006KT P6SM FEW250
     FM011100 32011KT P6SM SCT030
     FM011300 32015G24KT P6SM FEW035 SCT250=

USA.gov is the U.S. government's official web portal to all federal, state and local government web resources and services.